sensor_id;sensor_type;location;lat;lon;timestamp;pressure;altitude;pressure_sealevel;temperature;humidity
17764;BME280;22245;52.832;13.816;2023-03-16T00:00:11;101892.34;;;0.39;83.66
17764;BME280;22245;52.832;13.816;2023-03-16T00:03:35;101894.13;;;0.38;84.21
17764;BME280;22245;52.832;13.816;2023-03-16T00:06:57;101896.75;;;0.37;83.64
17764;BME280;22245;52.832;13.816;2023-03-16T00:10:18;101904.63;;;0.35;84.67
17764;BME280;22245;52.832;13.816;2023-03-16T00:13:47;101900.38;;;0.31;83.97
17764;BME280;22245;52.832;13.816;2023-03-16T00:17:09;101905.66;;;0.30;84.03
17764;BME280;22245;52.832;13.816;2023-03-16T00:20:39;101910.03;;;0.29;84.53
17764;BME280;22245;52.832;13.816;2023-03-16T00:24:00;101910.09;;;0.27;84.83
17764;BME280;22245;52.832;13.816;2023-03-16T00:27:24;101910.09;;;0.27;83.94
17764;BME280;22245;52.832;13.816;2023-03-16T00:30:46;101915.34;;;0.26;84.61
17764;BME280;22245;52.832;13.816;2023-03-16T00:34:08;101910.09;;;0.26;83.89
17764;BME280;22245;52.832;13.816;2023-03-16T00:37:31;101908.34;;;0.26;84.92
17764;BME280;22245;52.832;13.816;2023-03-16T00:40:53;101917.13;;;0.25;84.07
17764;BME280;22245;52.832;13.816;2023-03-16T00:44:16;101917.13;;;0.24;84.41
17764;BME280;22245;52.832;13.816;2023-03-16T00:47:38;101922.34;;;0.25;84.39
17764;BME280;22245;52.832;13.816;2023-03-16T00:51:02;101918.88;;;0.25;84.89
17764;BME280;22245;52.832;13.816;2023-03-16T00:54:27;101922.38;;;0.24;84.58
17764;BME280;22245;52.832;13.816;2023-03-16T00:57:48;101919.81;;;0.22;84.47
17764;BME280;22245;52.832;13.816;2023-03-16T01:01:12;101916.31;;;0.22;83.96
17764;BME280;22245;52.832;13.816;2023-03-16T01:04:34;101916.38;;;0.20;83.87
17764;BME280;22245;52.832;13.816;2023-03-16T01:07:56;101913.75;;;0.19;84.38
17764;BME280;22245;52.832;13.816;2023-03-16T01:11:22;101917.28;;;0.18;84.06
17764;BME280;22245;52.832;13.816;2023-03-16T01:14:44;101918.19;;;0.17;83.91
17764;BME280;22245;52.832;13.816;2023-03-16T01:18:06;101915.56;;;0.17;84.31
17764;BME280;22245;52.832;13.816;2023-03-16T01:21:27;101924.25;;;0.17;83.84
17764;BME280;22245;52.832;13.816;2023-03-16T01:24:48;101926.97;;;0.14;83.73
17764;BME280;22245;52.832;13.816;2023-03-16T01:28:12;101916.47;;;0.14;84.78
17764;BME280;22245;52.832;13.816;2023-03-16T01:31:34;101921.66;;;0.17;84.27
17764;BME280;22245;52.832;13.816;2023-03-16T01:34:55;101919.00;;;0.19;84.51
17764;BME280;22245;52.832;13.816;2023-03-16T01:38:17;101925.06;;;0.21;83.58
17764;BME280;22245;52.832;13.816;2023-03-16T01:41:40;101918.09;;;0.20;83.73
17764;BME280;22245;52.832;13.816;2023-03-16T01:45:04;101918.09;;;0.20;82.80
17764;BME280;22245;52.832;13.816;2023-03-16T01:48:34;101924.25;;;0.19;83.63
17764;BME280;22245;52.832;13.816;2023-03-16T01:51:59;101919.91;;;0.18;83.54
17764;BME280;22245;52.832;13.816;2023-03-16T01:55:24;101915.56;;;0.17;83.47
17764;BME280;22245;52.832;13.816;2023-03-16T01:58:46;101916.47;;;0.14;83.61
17764;BME280;22245;52.832;13.816;2023-03-16T02:02:12;101913.91;;;0.12;83.61
17764;BME280;22245;52.832;13.816;2023-03-16T02:05:38;101903.44;;;0.12;82.53
17764;BME280;22245;52.832;13.816;2023-03-16T02:09:03;101913.03;;;0.12;83.44
17764;BME280;22245;52.832;13.816;2023-03-16T02:12:26;101914.75;;;0.13;83.33
17764;BME280;22245;52.832;13.816;2023-03-16T02:15:51;101909.53;;;0.13;83.78
17764;BME280;22245;52.832;13.816;2023-03-16T02:19:20;101909.50;;;0.14;82.86
17764;BME280;22245;52.832;13.816;2023-03-16T02:22:48;101914.69;;;0.16;83.13
17764;BME280;22245;52.832;13.816;2023-03-16T02:26:18;101909.44;;;0.18;82.74
17764;BME280;22245;52.832;13.816;2023-03-16T02:29:53;101913.75;;;0.20;83.02
17764;BME280;22245;52.832;13.816;2023-03-16T02:33:18;101904.09;;;0.22;82.82
17764;BME280;22245;52.832;13.816;2023-03-16T02:36:44;101909.34;;;0.21;82.14
17764;BME280;22245;52.832;13.816;2023-03-16T02:40:20;101912.84;;;0.21;82.99
17764;BME280;22245;52.832;13.816;2023-03-16T02:43:47;101918.09;;;0.20;81.67
17764;BME280;22245;52.832;13.816;2023-03-16T02:47:26;101922.59;;;0.14;81.92
17764;BME280;22245;52.832;13.816;2023-03-16T02:50:51;101919.97;;;0.14;82.83
17764;BME280;22245;52.832;13.816;2023-03-16T02:54:13;101927.91;;;0.11;81.99
17764;BME280;22245;52.832;13.816;2023-03-16T02:57:35;101925.31;;;0.10;82.67
17764;BME280;22245;52.832;13.816;2023-03-16T03:01:02;101936.72;;;0.07;82.04
17764;BME280;22245;52.832;13.816;2023-03-16T03:04:27;101936.81;;;0.04;81.81
17764;BME280;22245;52.832;13.816;2023-03-16T03:07:48;101936.88;;;0.01;81.62
17764;BME280;22245;52.832;13.816;2023-03-16T03:11:10;101939.50;;;-0.01;81.86
17764;BME280;22245;52.832;13.816;2023-03-16T03:14:31;101933.47;;;-0.04;82.08
17764;BME280;22245;52.832;13.816;2023-03-16T03:17:58;101937.84;;;-0.05;82.51
17764;BME280;22245;52.832;13.816;2023-03-16T03:21:23;101937.94;;;-0.08;82.00
17764;BME280;22245;52.832;13.816;2023-03-16T03:24:45;101939.72;;;-0.10;81.61
17764;BME280;22245;52.832;13.816;2023-03-16T03:28:07;101951.97;;;-0.12;82.28
17764;BME280;22245;52.832;13.816;2023-03-16T03:31:28;101942.41;;;-0.15;82.45
17764;BME280;22245;52.832;13.816;2023-03-16T03:34:50;101952.94;;;-0.16;82.11
17764;BME280;22245;52.832;13.816;2023-03-16T03:38:13;101951.22;;;-0.19;81.70
17764;BME280;22245;52.832;13.816;2023-03-16T03:41:37;101951.25;;;-0.20;81.67
17764;BME280;22245;52.832;13.816;2023-03-16T03:44:59;101947.78;;;-0.21;81.52
17764;BME280;22245;52.832;13.816;2023-03-16T03:48:21;101949.56;;;-0.23;82.57
17764;BME280;22245;52.832;13.816;2023-03-16T03:51:43;101953.09;;;-0.24;82.39
17764;BME280;22245;52.832;13.816;2023-03-16T03:55:11;101954.81;;;-0.24;81.86
17764;BME280;22245;52.832;13.816;2023-03-16T03:58:32;101960.06;;;-0.24;81.81
17764;BME280;22245;52.832;13.816;2023-03-16T04:01:54;101960.91;;;-0.22;82.27
17764;BME280;22245;52.832;13.816;2023-03-16T04:05:19;101958.19;;;-0.18;82.75
17764;BME280;22245;52.832;13.816;2023-03-16T04:08:43;101965.13;;;-0.15;81.54
17764;BME280;22245;52.832;13.816;2023-03-16T04:12:10;101964.25;;;-0.14;81.91
17764;BME280;22245;52.832;13.816;2023-03-16T04:15:32;101967.78;;;-0.17;81.78
17764;BME280;22245;52.832;13.816;2023-03-16T04:19:03;101973.97;;;-0.21;80.37
17764;BME280;22245;52.832;13.816;2023-03-16T04:22:25;101977.47;;;-0.22;80.66
17764;BME280;22245;52.832;13.816;2023-03-16T04:25:50;101979.28;;;-0.24;81.56
17764;BME280;22245;52.832;13.816;2023-03-16T04:29:15;101981.06;;;-0.26;80.59
17764;BME280;22245;52.832;13.816;2023-03-16T04:32:39;101982.78;;;-0.25;80.81
17764;BME280;22245;52.832;13.816;2023-03-16T04:36:02;101983.69;;;-0.27;80.82
17764;BME280;22245;52.832;13.816;2023-03-16T04:39:25;101992.47;;;-0.30;80.66
17764;BME280;22245;52.832;13.816;2023-03-16T04:42:47;101990.00;;;-0.36;80.82
17764;BME280;22245;52.832;13.816;2023-03-16T04:46:13;101995.31;;;-0.42;80.36
17764;BME280;22245;52.832;13.816;2023-03-16T04:49:35;101986.69;;;-0.48;80.63
17764;BME280;22245;52.832;13.816;2023-03-16T04:52:56;101992.94;;;-0.53;81.59
17764;BME280;22245;52.832;13.816;2023-03-16T04:56:19;101988.66;;;-0.59;81.30
17764;BME280;22245;52.832;13.816;2023-03-16T04:59:47;101998.28;;;-0.61;81.14
17764;BME280;22245;52.832;13.816;2023-03-16T05:03:19;101998.38;;;-0.66;81.17
17764;BME280;22245;52.832;13.816;2023-03-16T05:06:41;101993.19;;;-0.69;81.99
17764;BME280;22245;52.832;13.816;2023-03-16T05:10:05;102000.25;;;-0.74;81.91
17764;BME280;22245;52.832;13.816;2023-03-16T05:13:27;102000.38;;;-0.80;81.63
17764;BME280;22245;52.832;13.816;2023-03-16T05:16:51;102001.31;;;-0.86;82.03
17764;BME280;22245;52.832;13.816;2023-03-16T05:20:16;101996.22;;;-0.92;82.33
17764;BME280;22245;52.832;13.816;2023-03-16T05:23:43;101991.91;;;-0.96;82.07
17764;BME280;22245;52.832;13.816;2023-03-16T05:27:06;101998.06;;;-0.99;82.90
17764;BME280;22245;52.832;13.816;2023-03-16T05:30:28;102001.59;;;-1.02;82.38
17764;BME280;22245;52.832;13.816;2023-03-16T05:33:52;102010.31;;;-1.03;82.50
17764;BME280;22245;52.832;13.816;2023-03-16T05:37:16;102009.50;;;-1.06;83.24
17764;BME280;22245;52.832;13.816;2023-03-16T05:40:39;102022.63;;;-1.08;83.10
17764;BME280;22245;52.832;13.816;2023-03-16T05:44:25;102015.66;;;-1.09;83.14
17764;BME280;22245;52.832;13.816;2023-03-16T05:48:05;102020.84;;;-1.07;83.65
17764;BME280;22245;52.832;13.816;2023-03-16T05:51:33;102026.06;;;-1.06;83.47
17764;BME280;22245;52.832;13.816;2023-03-16T05:54:58;102021.63;;;-1.02;83.60
17764;BME280;22245;52.832;13.816;2023-03-16T05:58:19;102026.81;;;-0.97;83.62
17764;BME280;22245;52.832;13.816;2023-03-16T06:01:42;102030.25;;;-0.94;83.91
17764;BME280;22245;52.832;13.816;2023-03-16T06:05:05;102032.78;;;-0.89;83.55
17764;BME280;22245;52.832;13.816;2023-03-16T06:08:31;102027.53;;;-0.89;83.40
17764;BME280;22245;52.832;13.816;2023-03-16T06:12:01;102019.69;;;-0.89;82.97
17764;BME280;22245;52.832;13.816;2023-03-16T06:15:24;102028.38;;;-0.85;83.70
17764;BME280;22245;52.832;13.816;2023-03-16T06:18:47;102032.59;;;-0.80;82.78
17764;BME280;22245;52.832;13.816;2023-03-16T06:22:09;102037.78;;;-0.77;83.42
17764;BME280;22245;52.832;13.816;2023-03-16T06:25:31;102035.97;;;-0.71;83.80
17764;BME280;22245;52.832;13.816;2023-03-16T06:28:56;102037.66;;;-0.67;83.16
17764;BME280;22245;52.832;13.816;2023-03-16T06:32:18;102044.47;;;-0.59;83.39
17764;BME280;22245;52.832;13.816;2023-03-16T06:35:41;102058.25;;;-0.49;83.66
17764;BME280;22245;52.832;13.816;2023-03-16T06:39:08;102061.66;;;-0.44;82.69
17764;BME280;22245;52.832;13.816;2023-03-16T06:42:33;102071.97;;;-0.34;82.82
17764;BME280;22245;52.832;13.816;2023-03-16T06:45:58;102071.75;;;-0.23;82.00
17764;BME280;22245;52.832;13.816;2023-03-16T06:49:21;102069.94;;;-0.18;82.18
17764;BME280;22245;52.832;13.816;2023-03-16T06:52:42;102081.97;;;-0.09;81.71
17764;BME280;22245;52.832;13.816;2023-03-16T06:56:04;102082.66;;;0.01;81.39
17764;BME280;22245;52.832;13.816;2023-03-16T06:59:30;102086.84;;;0.11;82.01
17764;BME280;22245;52.832;13.816;2023-03-16T07:02:53;102086.63;;;0.22;80.47
17764;BME280;22245;52.832;13.816;2023-03-16T07:06:15;102091.66;;;0.33;81.20
17764;BME280;22245;52.832;13.816;2023-03-16T07:09:37;102099.38;;;0.40;80.72
17764;BME280;22245;52.832;13.816;2023-03-16T07:13:01;102100.91;;;0.49;80.20
17764;BME280;22245;52.832;13.816;2023-03-16T07:16:23;102100.63;;;0.63;79.41
17764;BME280;22245;52.832;13.816;2023-03-16T07:19:47;102101.38;;;0.68;79.98
17764;BME280;22245;52.832;13.816;2023-03-16T07:23:10;102095.91;;;0.79;79.97
17764;BME280;22245;52.832;13.816;2023-03-16T07:26:33;102100.91;;;0.90;78.71
17764;BME280;22245;52.832;13.816;2023-03-16T07:29:55;102106.81;;;1.00;78.92
17764;BME280;22245;52.832;13.816;2023-03-16T07:33:17;102114.47;;;1.09;77.55
17764;BME280;22245;52.832;13.816;2023-03-16T07:36:41;102120.44;;;1.16;78.17
17764;BME280;22245;52.832;13.816;2023-03-16T07:40:04;102117.53;;;1.28;76.99
17764;BME280;22245;52.832;13.816;2023-03-16T07:43:28;102127.78;;;1.38;76.62
17764;BME280;22245;52.832;13.816;2023-03-16T07:46:50;102117.03;;;1.49;77.07
17764;BME280;22245;52.832;13.816;2023-03-16T07:50:16;102130.84;;;1.57;76.22
17764;BME280;22245;52.832;13.816;2023-03-16T07:53:42;102125.34;;;1.66;75.70
17764;BME280;22245;52.832;13.816;2023-03-16T07:57:09;102126.88;;;1.75;75.33
17764;BME280;22245;52.832;13.816;2023-03-16T08:00:34;102131.03;;;1.84;74.62
17764;BME280;22245;52.832;13.816;2023-03-16T08:03:57;102121.16;;;1.94;74.74
17764;BME280;22245;52.832;13.816;2023-03-16T08:07:18;102125.19;;;2.06;74.56
17764;BME280;22245;52.832;13.816;2023-03-16T08:10:58;102123.09;;;2.19;74.36
17764;BME280;22245;52.832;13.816;2023-03-16T08:14:31;102127.16;;;2.30;73.34
17764;BME280;22245;52.832;13.816;2023-03-16T08:18:02;102121.59;;;2.41;73.68
17764;BME280;22245;52.832;13.816;2023-03-16T08:21:23;102120.41;;;2.52;73.63
17764;BME280;22245;52.832;13.816;2023-03-16T08:24:46;102119.19;;;2.64;73.30
17764;BME280;22245;52.832;13.816;2023-03-16T08:28:11;102120.63;;;2.74;72.60
17764;BME280;22245;52.832;13.816;2023-03-16T08:31:33;102116.84;;;2.84;71.86
17764;BME280;22245;52.832;13.816;2023-03-16T08:35:16;102131.44;;;2.95;71.48
17764;BME280;22245;52.832;13.816;2023-03-16T08:38:40;102132.06;;;3.03;70.69
17764;BME280;22245;52.832;13.816;2023-03-16T08:42:05;102139.75;;;3.09;70.85
17764;BME280;22245;52.832;13.816;2023-03-16T08:45:34;102142.91;;;3.21;70.10
17764;BME280;22245;52.832;13.816;2023-03-16T08:48:56;102147.03;;;3.29;69.99
17764;BME280;22245;52.832;13.816;2023-03-16T08:52:18;102143.28;;;3.37;69.99
17764;BME280;22245;52.832;13.816;2023-03-16T08:55:40;102145.56;;;3.47;70.42
17764;BME280;22245;52.832;13.816;2023-03-16T08:59:02;102143.44;;;3.59;70.81
17764;BME280;22245;52.832;13.816;2023-03-16T09:02:26;102151.97;;;3.67;71.55
17764;BME280;22245;52.832;13.816;2023-03-16T09:05:48;102154.28;;;3.76;71.05
17764;BME280;22245;52.832;13.816;2023-03-16T09:09:09;102152.13;;;3.88;68.43
17764;BME280;22245;52.832;13.816;2023-03-16T09:12:33;102153.59;;;3.97;67.58
17764;BME280;22245;52.832;13.816;2023-03-16T09:15:55;102144.41;;;4.09;67.54
17764;BME280;22245;52.832;13.816;2023-03-16T09:19:20;102142.47;;;4.14;66.42
17764;BME280;22245;52.832;13.816;2023-03-16T09:22:42;102145.63;;;4.24;65.81
17764;BME280;22245;52.832;13.816;2023-03-16T09:26:05;102147.88;;;4.34;66.25
17764;BME280;22245;52.832;13.816;2023-03-16T09:29:27;102148.41;;;4.44;65.11
17764;BME280;22245;52.832;13.816;2023-03-16T09:32:49;102155.97;;;4.54;64.10
17764;BME280;22245;52.832;13.816;2023-03-16T09:36:12;102155.34;;;4.47;58.53
17764;BME280;22245;52.832;13.816;2023-03-16T09:39:34;102148.81;;;4.57;58.85
17764;BME280;22245;52.832;13.816;2023-03-16T09:43:07;102149.22;;;4.70;56.83
17764;BME280;22245;52.832;13.816;2023-03-16T09:46:31;102157.81;;;4.75;56.71
17764;BME280;22245;52.832;13.816;2023-03-16T09:49:57;102167.16;;;4.84;56.03
17764;BME280;22245;52.832;13.816;2023-03-16T09:53:24;102169.44;;;4.93;55.75
17764;BME280;22245;52.832;13.816;2023-03-16T09:56:49;102167.19;;;5.06;55.38
17764;BME280;22245;52.832;13.816;2023-03-16T10:00:16;102175.97;;;5.07;52.16
17764;BME280;22245;52.832;13.816;2023-03-16T10:03:54;102177.50;;;5.13;51.74
17764;BME280;22245;52.832;13.816;2023-03-16T10:07:27;102168.53;;;5.17;50.61
17764;BME280;22245;52.832;13.816;2023-03-16T10:11:06;102161.41;;;5.19;51.20
17764;BME280;22245;52.832;13.816;2023-03-16T10:14:38;102169.97;;;5.26;48.05
17764;BME280;22245;52.832;13.816;2023-03-16T10:18:05;102168.06;;;5.29;48.40
17764;BME280;22245;52.832;13.816;2023-03-16T10:21:37;102166.22;;;5.31;47.95
17764;BME280;22245;52.832;13.816;2023-03-16T10:25:04;102173.84;;;5.39;49.02
17764;BME280;22245;52.832;13.816;2023-03-16T10:28:29;102161.91;;;5.51;50.21
17764;BME280;22245;52.832;13.816;2023-03-16T10:31:53;102160.69;;;5.60;48.78
17764;BME280;22245;52.832;13.816;2023-03-16T10:35:29;102156.09;;;5.63;46.54
17764;BME280;22245;52.832;13.816;2023-03-16T10:38:52;102151.16;;;5.76;48.37
17764;BME280;22245;52.832;13.816;2023-03-16T10:42:16;102142.13;;;5.82;47.40
17764;BME280;22245;52.832;13.816;2023-03-16T10:45:41;102160.50;;;5.85;46.15
17764;BME280;22245;52.832;13.816;2023-03-16T10:49:03;102154.03;;;5.92;45.86
17764;BME280;22245;52.832;13.816;2023-03-16T10:52:32;102143.84;;;6.04;46.16
17764;BME280;22245;52.832;13.816;2023-03-16T10:55:56;102141.63;;;6.15;46.79
17764;BME280;22245;52.832;13.816;2023-03-16T10:59:27;102142.28;;;6.20;43.54
17764;BME280;22245;52.832;13.816;2023-03-16T11:02:52;102141.50;;;6.18;43.95
17764;BME280;22245;52.832;13.816;2023-03-16T11:06:19;102138.69;;;6.21;44.38
17764;BME280;22245;52.832;13.816;2023-03-16T11:09:42;102141.75;;;6.12;43.05
17764;BME280;22245;52.832;13.816;2023-03-16T11:13:12;102135.91;;;6.25;44.29
17764;BME280;22245;52.832;13.816;2023-03-16T11:16:38;102126.56;;;6.36;44.63
17764;BME280;22245;52.832;13.816;2023-03-16T11:20:05;102122.44;;;6.50;44.04
17764;BME280;22245;52.832;13.816;2023-03-16T11:23:33;102113.66;;;6.49;43.09
17764;BME280;22245;52.832;13.816;2023-03-16T11:27:00;102116.22;;;6.51;44.13
17764;BME280;22245;52.832;13.816;2023-03-16T11:30:25;102115.13;;;6.55;44.06
17764;BME280;22245;52.832;13.816;2023-03-16T11:33:50;102115.78;;;6.60;44.50
17764;BME280;22245;52.832;13.816;2023-03-16T11:37:24;102106.50;;;6.71;44.64
17764;BME280;22245;52.832;13.816;2023-03-16T11:40:54;102108.50;;;6.85;43.00
17764;BME280;22245;52.832;13.816;2023-03-16T11:44:21;102097.44;;;6.94;43.14
17764;BME280;22245;52.832;13.816;2023-03-16T11:48:15;102101.25;;;6.88;41.40
17764;BME280;22245;52.832;13.816;2023-03-16T11:51:43;102102.31;;;7.03;42.70
17764;BME280;22245;52.832;13.816;2023-03-16T11:55:18;102096.41;;;7.16;42.50
17764;BME280;22245;52.832;13.816;2023-03-16T11:58:53;102093.47;;;7.22;39.18
17764;BME280;22245;52.832;13.816;2023-03-16T12:02:38;102085.38;;;7.25;39.30
17764;BME280;22245;52.832;13.816;2023-03-16T12:06:15;102081.63;;;7.29;38.57
17764;BME280;22245;52.832;13.816;2023-03-16T12:14:04;102071.28;;;7.42;38.60
17764;BME280;22245;52.832;13.816;2023-03-16T12:17:30;102068.22;;;7.50;38.01
17764;BME280;22245;52.832;13.816;2023-03-16T12:20:57;102075.31;;;7.49;39.54
17764;BME280;22245;52.832;13.816;2023-03-16T12:24:23;102073.34;;;7.53;39.06
17764;BME280;22245;52.832;13.816;2023-03-16T12:27:48;102067.44;;;7.65;38.46
17764;BME280;22245;52.832;13.816;2023-03-16T12:31:16;102066.19;;;7.73;40.48
17764;BME280;22245;52.832;13.816;2023-03-16T12:34:43;102058.00;;;7.77;39.98
17764;BME280;22245;52.832;13.816;2023-03-16T12:38:30;102057.13;;;7.77;38.57
17764;BME280;22245;52.832;13.816;2023-03-16T12:42:06;102054.53;;;7.75;39.72
17764;BME280;22245;52.832;13.816;2023-03-16T12:45:37;102056.91;;;7.81;40.22
17764;BME280;22245;52.832;13.816;2023-03-16T12:49:04;102044.06;;;7.90;38.65
17764;BME280;22245;52.832;13.816;2023-03-16T12:52:26;102043.56;;;7.99;38.76
17764;BME280;22245;52.832;13.816;2023-03-16T12:56:04;102036.56;;;7.98;39.11
17764;BME280;22245;52.832;13.816;2023-03-16T12:59:35;102034.69;;;8.00;39.71
17764;BME280;22245;52.832;13.816;2023-03-16T13:02:59;102034.19;;;8.09;39.87
17764;BME280;22245;52.832;13.816;2023-03-16T13:06:23;102025.09;;;8.14;38.67
17764;BME280;22245;52.832;13.816;2023-03-16T13:09:48;102032.66;;;8.21;39.95
17764;BME280;22245;52.832;13.816;2023-03-16T13:13:13;102023.41;;;8.29;40.62
17764;BME280;22245;52.832;13.816;2023-03-16T13:16:36;102027.38;;;8.37;39.22
17764;BME280;22245;52.832;13.816;2023-03-16T13:20:25;102023.41;;;8.45;39.13
17764;BME280;22245;52.832;13.816;2023-03-16T13:23:55;102024.97;;;8.49;38.28
17764;BME280;22245;52.832;13.816;2023-03-16T13:27:21;102022.09;;;8.53;38.31
17764;BME280;22245;52.832;13.816;2023-03-16T13:30:46;102020.91;;;8.59;38.61
17764;BME280;22245;52.832;13.816;2023-03-16T13:34:13;102020.44;;;8.67;37.47
17764;BME280;22245;52.832;13.816;2023-03-16T13:37:37;102020.25;;;8.70;38.28
17764;BME280;22245;52.832;13.816;2023-03-16T13:41:04;102013.88;;;8.74;37.67
17764;BME280;22245;52.832;13.816;2023-03-16T13:44:30;102019.84;;;8.78;37.52
17764;BME280;22245;52.832;13.816;2023-03-16T13:47:52;102027.56;;;8.82;36.48
17764;BME280;22245;52.832;13.816;2023-03-16T13:51:16;102036.28;;;8.85;36.21
17764;BME280;22245;52.832;13.816;2023-03-16T13:54:39;102034.22;;;8.90;36.50
17764;BME280;22245;52.832;13.816;2023-03-16T13:58:03;102034.91;;;8.93;34.00
17764;BME280;22245;52.832;13.816;2023-03-16T14:01:27;102031.97;;;8.98;35.15
17764;BME280;22245;52.832;13.816;2023-03-16T14:04:50;102023.81;;;9.01;32.90
17764;BME280;22245;52.832;13.816;2023-03-16T14:08:15;102018.50;;;9.01;31.50
17764;BME280;22245;52.832;13.816;2023-03-16T14:11:36;102016.53;;;9.05;31.44
17764;BME280;22245;52.832;13.816;2023-03-16T14:15:04;102010.16;;;9.07;31.84
17764;BME280;22245;52.832;13.816;2023-03-16T14:18:31;102002.19;;;9.07;32.88
17764;BME280;22245;52.832;13.816;2023-03-16T14:21:55;101990.63;;;9.08;33.57
17764;BME280;22245;52.832;13.816;2023-03-16T14:25:20;101989.59;;;9.11;34.39
17764;BME280;22245;52.832;13.816;2023-03-16T14:28:53;101990.47;;;9.11;34.97
17764;BME280;22245;52.832;13.816;2023-03-16T14:32:23;101983.25;;;9.14;35.18
17764;BME280;22245;52.832;13.816;2023-03-16T14:35:53;101980.31;;;9.18;35.05
17764;BME280;22245;52.832;13.816;2023-03-16T14:39:19;101975.69;;;9.22;34.99
17764;BME280;22245;52.832;13.816;2023-03-16T14:42:42;101978.53;;;9.19;34.55
17764;BME280;22245;52.832;13.816;2023-03-16T14:46:04;101970.25;;;9.23;34.00
17764;BME280;22245;52.832;13.816;2023-03-16T14:49:29;101961.25;;;9.26;34.51
17764;BME280;22245;52.832;13.816;2023-03-16T14:52:53;101960.31;;;9.27;33.78
17764;BME280;22245;52.832;13.816;2023-03-16T14:56:16;101965.34;;;9.32;34.97
17764;BME280;22245;52.832;13.816;2023-03-16T14:59:38;101950.06;;;9.35;35.06
17764;BME280;22245;52.832;13.816;2023-03-16T15:03:02;101937.53;;;9.37;33.99
17764;BME280;22245;52.832;13.816;2023-03-16T15:06:27;101933.53;;;9.45;36.24
17764;BME280;22245;52.832;13.816;2023-03-16T15:09:51;101933.19;;;9.51;34.37
17764;BME280;22245;52.832;13.816;2023-03-16T15:13:16;101935.53;;;9.55;34.45
17764;BME280;22245;52.832;13.816;2023-03-16T15:16:53;101936.78;;;9.64;34.81
17764;BME280;22245;52.832;13.816;2023-03-16T15:20:17;101935.56;;;9.70;33.29
17764;BME280;22245;52.832;13.816;2023-03-16T15:23:41;101929.16;;;9.73;33.67
17764;BME280;22245;52.832;13.816;2023-03-16T15:27:04;101931.56;;;9.77;33.07
17764;BME280;22245;52.832;13.816;2023-03-16T15:30:32;101930.19;;;9.84;32.25
17764;BME280;22245;52.832;13.816;2023-03-16T15:33:54;101922.50;;;9.94;32.74
17764;BME280;22245;52.832;13.816;2023-03-16T15:37:17;101926.47;;;10.02;30.60
17764;BME280;22245;52.832;13.816;2023-03-16T15:40:42;101922.97;;;10.43;30.08
17764;BME280;22245;52.832;13.816;2023-03-16T15:44:11;101918.53;;;11.49;27.47
17764;BME280;22245;52.832;13.816;2023-03-16T15:47:33;101920.41;;;12.23;26.52
17764;BME280;22245;52.832;13.816;2023-03-16T15:50:56;101924.72;;;12.37;26.74
17764;BME280;22245;52.832;13.816;2023-03-16T15:54:19;101916.09;;;12.57;26.23
17764;BME280;22245;52.832;13.816;2023-03-16T15:57:42;101910.63;;;13.06;25.53
17764;BME280;22245;52.832;13.816;2023-03-16T16:01:05;101913.38;;;13.63;25.23
17764;BME280;22245;52.832;13.816;2023-03-16T16:04:28;101920.63;;;13.95;25.23
17764;BME280;22245;52.832;13.816;2023-03-16T16:07:50;101910.66;;;14.09;24.99
17764;BME280;22245;52.832;13.816;2023-03-16T16:11:13;101897.94;;;14.22;25.28
17764;BME280;22245;52.832;13.816;2023-03-16T16:14:37;101898.53;;;14.26;25.77
17764;BME280;22245;52.832;13.816;2023-03-16T16:18:00;101904.28;;;14.21;26.03
17764;BME280;22245;52.832;13.816;2023-03-16T16:21:41;101903.63;;;13.85;26.90
17764;BME280;22245;52.832;13.816;2023-03-16T16:25:03;101897.56;;;13.49;26.88
17764;BME280;22245;52.832;13.816;2023-03-16T16:28:29;101903.09;;;13.11;27.52
17764;BME280;22245;52.832;13.816;2023-03-16T16:31:52;101909.91;;;12.68;27.83
17764;BME280;22245;52.832;13.816;2023-03-16T16:35:16;101914.97;;;12.24;28.88
17764;BME280;22245;52.832;13.816;2023-03-16T16:38:38;101909.81;;;11.84;29.45
17764;BME280;22245;52.832;13.816;2023-03-16T16:42:00;101903.56;;;11.46;30.05
17764;BME280;22245;52.832;13.816;2023-03-16T16:45:23;101910.22;;;11.14;30.89
17764;BME280;22245;52.832;13.816;2023-03-16T16:48:48;101911.88;;;10.90;30.78
17764;BME280;22245;52.832;13.816;2023-03-16T16:52:12;101900.97;;;10.67;31.20
17764;BME280;22245;52.832;13.816;2023-03-16T16:55:34;101912.97;;;10.47;31.56
17764;BME280;22245;52.832;13.816;2023-03-16T16:58:56;101910.63;;;10.27;31.66
17764;BME280;22245;52.832;13.816;2023-03-16T17:02:28;101909.91;;;10.11;32.34
17764;BME280;22245;52.832;13.816;2023-03-16T17:05:53;101903.75;;;9.96;32.27
17764;BME280;22245;52.832;13.816;2023-03-16T17:09:15;101902.94;;;9.81;31.98
17764;BME280;22245;52.832;13.816;2023-03-16T17:12:37;101900.50;;;9.63;32.29
17764;BME280;22245;52.832;13.816;2023-03-16T17:15:59;101902.22;;;9.50;33.35
17764;BME280;22245;52.832;13.816;2023-03-16T17:19:22;101900.50;;;9.34;34.16
17764;BME280;22245;52.832;13.816;2023-03-16T17:22:46;101895.25;;;9.18;34.78
17764;BME280;22245;52.832;13.816;2023-03-16T17:26:13;101897.03;;;9.03;35.38
17764;BME280;22245;52.832;13.816;2023-03-16T17:29:36;101904.91;;;8.90;35.62
17764;BME280;22245;52.832;13.816;2023-03-16T17:33:02;101905.53;;;8.79;36.06
17764;BME280;22245;52.832;13.816;2023-03-16T17:36:25;101911.38;;;8.70;36.07
17764;BME280;22245;52.832;13.816;2023-03-16T17:39:48;101911.16;;;8.59;36.23
17764;BME280;22245;52.832;13.816;2023-03-16T17:43:13;101912.59;;;8.48;36.92
17764;BME280;22245;52.832;13.816;2023-03-16T17:46:35;101916.81;;;8.36;36.77
17764;BME280;22245;52.832;13.816;2023-03-16T17:49:57;101928.03;;;8.25;37.46
17764;BME280;22245;52.832;13.816;2023-03-16T17:53:19;101930.44;;;8.14;37.92